AirNav   Air Wisconsin pilot careers
 
 625 users online  

6N5 East 34th Street Heliport
New York, New York, USA

GOING TO NEW YORK?


FAA INFORMATION EFFECTIVE 31 JANUARY 2019

Location

FAA Identifier: 6N5
Lat/Long: 40-44-33.3660N / 073-58-19.4990W
40-44.556100N / 073-58.324983W
40.7426017 / -73.9720831
(estimated)
Elevation: 10 ft. / 3 m (estimated)
Variation: 13W (1985)
From city: HELIPORT LCTD 5SW OF LAGUARDIA ARPT.
Time zone: UTC -5 (UTC -4 during Daylight Saving Time)
Zip code: 10010

Heliport Operations

Heliport use: Open to the public
Control tower: no
ARTCC: NEW YORK CENTER
FSS: NEW YORK FLIGHT SERVICE STATION
NOTAMs facility: ISP (NOTAM-D service available)
Attendance: MON-FRI 0800-2000
Wind indicator: yes
Segmented circle: no
Lights: SS-SR
Beacon: white-green-yellow (heliport)
DUSK-DAWN. BCN LCTD ABOVE OFFICE TRAILER BLO ELEVATED HIGHWAY.
Landing fee: yes

Heliport Communications

CTAF/UNICOM: 123.075
NEW YORK APPROACH: 120.8
NEW YORK DEPARTURE: 120.8
WX AWOS-3PT at JRB (3 nm SW): 128.175 (212-425-1534)
WX ASOS at LGA (5 nm NE): PHONE 718-672-6317
WX ASOS at TEB (8 nm NW): 132.025 (201-393-0855)
WX ASOS at EWR (9 nm W): PHONE 973-621-2892
WX ASOS at JFK (11 nm SE): PHONE 718-656-0956
WX AWOS-3 at LDJ (14 nm SW): 124.025 (908-862-7383)
WX ASOS at CDW (16 nm NW): 135.5 (973-575-4417)

Nearby radio navigation aids

VOR radial/distance  VOR name  Freq  Var
LGAr254/5.3LA GUARDIA VOR/DME113.1012W
TEBr158/7.6TETERBORO VOR/DME108.4011W
CRIr347/8.6CANARSIE VOR/DME112.3011W
JFKr318/11.3KENNEDY VOR/DME115.9012W
COLr029/27.2COLTS NECK VOR/DME115.4011W
DPKr276/30.5DEER PARK VOR/DME117.7012W
SAXr138/32.2SPARTA VORTAC115.7011W
SBJr085/36.3SOLBERG VOR/DME112.9010W
CMKr221/36.8CARMEL VOR/DME116.6012W
BWZr106/38.8BROADWAY VOR/DME114.2011W

 
NDB name  Hdg/Dist  Freq  Var  ID
TORBY129/8.221412WTE - .
CHATHAM103/20.825413WCAT -.-. .- -
BABYLON293/27.127514WBBN -... -... -.

Heliport Services

Fuel available: A1
Parking: tiedowns
Airframe service: NONE
Powerplant service: NONE

Runway Information

Helipad H2

Dimensions: 44 x 44 ft. / 13 x 13 m
ADD'L 7.5 TO BULKHEAD.
Surface: asphalt, in good condition
Runway edge lights: non-standard
Traffic pattern: leftleft

Helipad H3

Dimensions: 44 x 44 ft. / 13 x 13 m
ADD'L 7.5 TO BULKHEAD.
Surface: asphalt, in good condition
Runway edge lights: non-standard
Traffic pattern: leftleft

Helipad H4

Dimensions: 44 x 44 ft. / 13 x 13 m
ADD'L 7.5 TO BULKHEAD.
Surface: asphalt, in good condition
Runway edge lights: non-standard
Traffic pattern: leftleft

Helipad H1

Dimensions: 37 x 37 ft. / 11 x 11 m
ADD'L 7.5 FT TO BULKHEAD.
Surface: asphalt/concrete, in good condition
Runway edge lights: non-standard
NSTD GREEN PERIMETER LGTS.
Latitude: 40-44.556100N
Longitude: 073-58.324983W
Elevation: 10.0 ft.
Traffic pattern: leftleft
Markings: NSTD, in good condition

Heliport Ownership and Management from official FAA records

Ownership: Publicly-owned
Owner: ECONOMIC DEVELOPMENT CORP
110 WILLIAM ST
NEW YORK, NY 10038
Phone 212-889-2551
Manager: PATRICIA WAGNER
ATLANTIC AVIATION, 499 E. 34TH ST. & F.D.R. DR.
NEW YORK, NY 10016
Phone 212-889-6370

Heliport Operational Statistics

Aircraft operations: avg 50/day *
96% air taxi
3% transient general aviation
2% military
* for 12-month period ending 07 September 2017

Additional Remarks

HELIPORT CLSD SAT & SUN.
ALL OPNS OVER EAST RIVER.
NO LATE OR EARLY OPNS AVBL.
CALL AHEAD FOR PARKING.
"NX RAD" WX SYSTEM AVBL.
FOR CD CTC NEW YORK APCH AT 800-645-3206.
A52-H1 RWY H1 LGTD BLDG AND FENCE NW AND SE; ELEVATED HIGHWAY AND BUILDING TO THE WEST, FENCE AND BUILDINGS TO THE NORTH AND SOUTH. RIVER ON THE EAST SIDE,SAILBOATS AND FERRIES POSSIBLY BY EDGE OF PAD.

Instrument Procedures

NOTE: All procedures below are presented as PDF files. If you need a reader for these files, you should download the free Adobe Reader.

NOT FOR NAVIGATION. Please procure official charts for flight.
FAA instrument procedures published for use from 31 January 2019 at 0901Z to 28 February 2019 at 0900Z.

NOTE: Special Take-Off Minimums/Departure Procedures apply   download (592KB)

Other nearby airports with instrument procedures:

KJRA - West 30th St Heliport (2 nm NW)
KJRB - Downtown Manhattan/Wall Street Heliport (3 nm SW)
KLGA - LaGuardia Airport (5 nm NE)
KTEB - Teterboro Airport (8 nm NW)
KEWR - Newark Liberty International Airport (9 nm W)
KJFK - John F Kennedy International Airport (11 nm SE)
KLDJ - Linden Airport (14 nm SW)
KCDW - Essex County Airport (16 nm NW)
N07 - Lincoln Park Airport (20 nm NW)
 
Loc | Ops | Rwys | IFR | FBO | Links
Com | Nav | Svcs | Stats | Notes
Area around 6N5 (East 34th Street Heliport)
 
Road maps at: MapQuest Bing Google
 
Aerial photo
WARNING: Photo may not be current or correct
Aerial photo of 6N5 (East 34th Street Heliport)
Photo by Dave Lu
Photo taken 26-Sep-2012
looking northeast.

Do you have a better or more recent aerial photo of East 34th Street Heliport that you would like to share? If so, please send us your photo.

 
Sectional chart

 
Airport distance calculator
Flying to East 34th Street Heliport? Find the distance to fly.

From to 6N5

Sunrise and sunset
Times for 20-Feb-2019
 Local
(UTC-5)
 Zulu
(UTC)
Morning civil twilight06:1611:16
Sunrise06:4411:44
Sunset17:3522:35
Evening civil twilight18:0323:03

Current date and time
Zulu (UTC)  20-Feb-2019 12:39:15
Local (UTC-5)  20-Feb-2019 07:39:15
 
METAR
KNYC 
2nm N 
201151Z AUTO 10SM CLR M03/M12 A3060 RMK AO2 SLP353 T10281122 11022 21028 56009 $
KJRB 
3nm SW 
201156Z AUTO 04007KT 10SM CLR M01/M07 A3059 RMK AO2 SLP359 70001 T10111072 11006 21017 58007 FZRANO
KLGA 
5nm NE 
201151Z 09007KT 10SM OVC170 M03/M13 A3059 RMK AO2 SLP357 T10281128 11017 21028 58006
KTEB 
8nm NW 
201151Z 05006KT 10SM CLR M03/M13 A3058 RMK AO2 SLP356 T10331128 11022 21033 56009
KEWR 
10nm W 
201151Z 03006KT 10SM OVC150 M03/M12 A3058 RMK AO2 SLP354 T10281122 11022 21028 58009
KJFK 
11nm SE 
201151Z 07006KT 10SM OVC170 M03/M11 A3060 RMK AO2 SLP362 T10281111 11017 21028 58004
KLDJ 
14nm SW 
201215Z AUTO 00000KT 10SM CLR M02/M13 A3061 RMK AO2 T10211132
KCDW 
16nm NW 
201153Z 06003KT 10SM CLR M04/M12 A3059 RMK AO2 SLP365 T10391122 11033 21039 56008
TAF
KLGA 
5nm NE 
201131Z 2012/2118 06005KT P6SM OVC150 FM201500 10006KT P6SM FEW030 BKN070 FM201700 14006KT 3/4SM -SN SCT010 OVC025 FM201900 13007KT 1/2SM SN FG OVC020 FM202100 12008KT 1/2SM SN FG OVC009 FM210100 11008KT 1/2SM SNRAPL OVC007 FM210400 09009KT 2SM RA OVC007 FM210900 VRB04KT 2SM -DZ BR OVC004 FM211200 27008KT 6SM BR OVC004 FM211400 28010KT P6SM SCT025
KTEB 
8nm NW 
201131Z 2012/2118 VRB04KT P6SM OVC150 FM201500 VRB04KT P6SM FEW030 BKN070 FM201700 16006KT 3/4SM -SN SCT010 OVC025 FM201900 15006KT 1/2SM SN FG OVC020 FM202100 13006KT 1/2SM SN FG OVC009 FM210100 13004KT 1 1/2SM FZRASNPL OVC007 FM210500 VRB03KT 2SM RA OVC007 FM210900 VRB02KT 2SM -DZ BR OVC004 FM211200 27005KT 6SM BR OVC004 FM211400 27008KT P6SM SCT025
KEWR 
10nm W 
201131Z 2012/2118 VRB04KT P6SM OVC150 FM201500 VRB04KT P6SM FEW030 BKN070 FM201700 14006KT 3/4SM -SN SCT010 OVC025 FM201900 12006KT 1/2SM SN FG OVC020 FM202100 11007KT 1/2SM SN FG OVC009 FM202300 11007KT 1 1/2SM FZRASNPL OVC007 FM210400 08006KT 2SM RA OVC007 FM210900 VRB04KT 2SM -DZ BR OVC004 FM211200 27006KT 6SM BR OVC004 FM211400 27010KT P6SM SCT025
KJFK 
11nm SE 
201131Z 2012/2118 07005KT P6SM OVC150 FM201500 11006KT P6SM FEW030 BKN070 FM201700 14006KT 3/4SM -SN SCT010 OVC025 FM201900 12006KT 1/2SM SN FG OVC020 FM202100 11008KT 1/2SM SN FG OVC009 FM202300 11009KT 1/2SM SNRAPL OVC007 FM210300 11010KT 2SM RA OVC007 FM210900 VRB04KT 2SM -DZ BR OVC004 FM211200 27008KT 6SM BR OVC004 FM211400 28010KT P6SM SCT025
NOTAMs
Click for the latest NOTAMs
NOTAMs are issued by the DoD/FAA and will open in a separate window not controlled by AirNav.

 

 
 

FBO, Fuel Providers, and Aircraft Ground Support

  
 Business Name 
 
 Contact 
 
 Services / Description 
 
Fuel Prices
 
Comments
  
Atlantic Aviation UNICOM 123.075
212-889-2319
212-889-2551
[web site]
[email]
New York City's Award-Winning Heliport
More info and photos of Atlantic Aviation
independent
Jet A
FS $8.15 
 Updated 07-Dec-2015
 
   write
FS=Full service
Update Fuel Prices
 

Would you like to see your business listed on this page?

 If your business provides an interesting product or service to pilots, flight crews, aircraft, or users of the East 34th Street Heliport, you should consider listing it here.  To start the listing process, click on the button below
 
Add a business
 

Other Pages about East 34th Street Heliport

www.amport-aviation.com/...
 
Update a link
 
Copyright © AirNav, LLC. All rights reserved. Privacy Policy  Contact